sensor_id;sensor_type;location;lat;lon;timestamp;pressure;altitude;pressure_sealevel;temperature;humidity
41515;BME280;27247;48.020;16.720;2022-11-09T00:03:24;100060.41;;;9.05;100.00
41515;BME280;27247;48.020;16.720;2022-11-09T00:07:35;100055.88;;;8.98;100.00
41515;BME280;27247;48.020;16.720;2022-11-09T00:11:45;100052.91;;;9.01;100.00
41515;BME280;27247;48.020;16.720;2022-11-09T00:15:59;100050.09;;;9.10;100.00
41515;BME280;27247;48.020;16.720;2022-11-09T00:20:09;100052.09;;;9.08;100.00
41515;BME280;27247;48.020;16.720;2022-11-09T00:24:20;100055.44;;;9.10;100.00
41515;BME280;27247;48.020;16.720;2022-11-09T00:28:30;100061.94;;;9.08;100.00
41515;BME280;27247;48.020;16.720;2022-11-09T00:32:40;100064.59;;;9.08;100.00
41515;BME280;27247;48.020;16.720;2022-11-09T00:36:51;100068.28;;;9.15;100.00
41515;BME280;27247;48.020;16.720;2022-11-09T00:41:02;100065.09;;;9.11;100.00
41515;BME280;27247;48.020;16.720;2022-11-09T00:45:13;100068.97;;;9.17;100.00
41515;BME280;27247;48.020;16.720;2022-11-09T00:49:23;100072.78;;;9.14;100.00
41515;BME280;27247;48.020;16.720;2022-11-09T00:53:34;100066.47;;;9.15;100.00
41515;BME280;27247;48.020;16.720;2022-11-09T00:57:47;100067.97;;;9.18;100.00
41515;BME280;27247;48.020;16.720;2022-11-09T01:01:58;100056.16;;;9.20;100.00
41515;BME280;27247;48.020;16.720;2022-11-09T01:06:14;100058.66;;;9.22;100.00
41515;BME280;27247;48.020;16.720;2022-11-09T01:10:25;100054.97;;;9.15;100.00
41515;BME280;27247;48.020;16.720;2022-11-09T01:14:35;100043.47;;;9.14;100.00
41515;BME280;27247;48.020;16.720;2022-11-09T01:18:46;100038.59;;;9.10;100.00
41515;BME280;27247;48.020;16.720;2022-11-09T01:22:57;100037.28;;;9.14;100.00
41515;BME280;27247;48.020;16.720;2022-11-09T01:27:07;100044.28;;;9.15;100.00
41515;BME280;27247;48.020;16.720;2022-11-09T01:31:19;100038.97;;;9.15;100.00
41515;BME280;27247;48.020;16.720;2022-11-09T01:35:35;100048.13;;;9.12;100.00
41515;BME280;27247;48.020;16.720;2022-11-09T01:39:45;100036.28;;;9.15;100.00
41515;BME280;27247;48.020;16.720;2022-11-09T01:48:15;100047.16;;;9.21;100.00
41515;BME280;27247;48.020;16.720;2022-11-09T01:52:34;100045.28;;;9.14;100.00
41515;BME280;27247;48.020;16.720;2022-11-09T01:56:47;100039.28;;;9.12;100.00
41515;BME280;27247;48.020;16.720;2022-11-09T02:01:00;100039.31;;;9.20;100.00
41515;BME280;27247;48.020;16.720;2022-11-09T02:05:13;100046.81;;;9.24;100.00
41515;BME280;27247;48.020;16.720;2022-11-09T02:09:45;100038.97;;;9.23;100.00
41515;BME280;27247;48.020;16.720;2022-11-09T02:13:59;100031.47;;;9.18;100.00
41515;BME280;27247;48.020;16.720;2022-11-09T02:18:10;100029.47;;;9.20;100.00
41515;BME280;27247;48.020;16.720;2022-11-09T02:22:20;100021.66;;;9.19;100.00
41515;BME280;27247;48.020;16.720;2022-11-09T02:26:44;100027.97;;;9.18;100.00
41515;BME280;27247;48.020;16.720;2022-11-09T02:30:57;100030.59;;;9.02;100.00
41515;BME280;27247;48.020;16.720;2022-11-09T02:35:08;100033.88;;;8.95;100.00
41515;BME280;27247;48.020;16.720;2022-11-09T02:39:21;100020.69;;;8.86;100.00
41515;BME280;27247;48.020;16.720;2022-11-09T02:43:34;100032.50;;;8.83;100.00
41515;BME280;27247;48.020;16.720;2022-11-09T02:47:45;100028.69;;;8.86;100.00
41515;BME280;27247;48.020;16.720;2022-11-09T02:51:55;100031.50;;;8.84;100.00
41515;BME280;27247;48.020;16.720;2022-11-09T02:56:06;100035.84;;;8.85;100.00
41515;BME280;27247;48.020;16.720;2022-11-09T03:00:16;100029.72;;;8.93;100.00
41515;BME280;27247;48.020;16.720;2022-11-09T03:04:27;100036.34;;;8.89;100.00
41515;BME280;27247;48.020;16.720;2022-11-09T03:08:37;100039.91;;;8.98;100.00
41515;BME280;27247;48.020;16.720;2022-11-09T03:12:48;100031.19;;;8.87;100.00
41515;BME280;27247;48.020;16.720;2022-11-09T03:16:58;100030.75;;;9.00;100.00
41515;BME280;27247;48.020;16.720;2022-11-09T03:21:08;100029.91;;;9.00;100.00
41515;BME280;27247;48.020;16.720;2022-11-09T03:25:19;100032.41;;;9.01;100.00
41515;BME280;27247;48.020;16.720;2022-11-09T03:29:29;100035.38;;;8.90;100.00
41515;BME280;27247;48.020;16.720;2022-11-09T03:33:39;100042.22;;;8.92;100.00
41515;BME280;27247;48.020;16.720;2022-11-09T03:37:50;100041.09;;;9.03;100.00
41515;BME280;27247;48.020;16.720;2022-11-09T03:42:00;100045.59;;;9.03;100.00
41515;BME280;27247;48.020;16.720;2022-11-09T03:46:11;100046.91;;;8.99;100.00
41515;BME280;27247;48.020;16.720;2022-11-09T03:50:21;100038.53;;;8.93;100.00
41515;BME280;27247;48.020;16.720;2022-11-09T03:54:32;100034.56;;;8.98;100.00
41515;BME280;27247;48.020;16.720;2022-11-09T03:58:42;100044.66;;;8.86;100.00
41515;BME280;27247;48.020;16.720;2022-11-09T04:02:52;100036.03;;;8.92;100.00
41515;BME280;27247;48.020;16.720;2022-11-09T04:07:03;100036.84;;;8.84;100.00
41515;BME280;27247;48.020;16.720;2022-11-09T04:11:13;100039.44;;;8.68;100.00
41515;BME280;27247;48.020;16.720;2022-11-09T04:15:23;100033.72;;;8.63;100.00
41515;BME280;27247;48.020;16.720;2022-11-09T04:19:34;100026.06;;;8.60;100.00
41515;BME280;27247;48.020;16.720;2022-11-09T04:23:46;100031.59;;;8.67;100.00
41515;BME280;27247;48.020;16.720;2022-11-09T04:27:58;100024.59;;;8.66;100.00
41515;BME280;27247;48.020;16.720;2022-11-09T04:32:08;100025.31;;;8.76;100.00
41515;BME280;27247;48.020;16.720;2022-11-09T04:36:19;100025.31;;;8.76;100.00
41515;BME280;27247;48.020;16.720;2022-11-09T04:40:31;100018.66;;;8.80;100.00
41515;BME280;27247;48.020;16.720;2022-11-09T04:44:42;100007.53;;;8.84;100.00
41515;BME280;27247;48.020;16.720;2022-11-09T04:48:52;100005.22;;;8.89;100.00
41515;BME280;27247;48.020;16.720;2022-11-09T04:53:04;100001.88;;;8.87;100.00
41515;BME280;27247;48.020;16.720;2022-11-09T04:57:15;100018.69;;;8.88;100.00
41515;BME280;27247;48.020;16.720;2022-11-09T05:01:25;100010.22;;;8.92;100.00
41515;BME280;27247;48.020;16.720;2022-11-09T05:05:36;100011.38;;;8.90;100.00
41515;BME280;27247;48.020;16.720;2022-11-09T05:09:47;100005.53;;;8.86;100.00
41515;BME280;27247;48.020;16.720;2022-11-09T05:13:58;100020.53;;;8.87;100.00
41515;BME280;27247;48.020;16.720;2022-11-09T05:18:09;100023.72;;;8.91;100.00
41515;BME280;27247;48.020;16.720;2022-11-09T05:22:19;100025.81;;;8.79;100.00
41515;BME280;27247;48.020;16.720;2022-11-09T05:26:48;100022.69;;;8.84;100.00
41515;BME280;27247;48.020;16.720;2022-11-09T05:30:59;100015.22;;;8.95;100.00
41515;BME280;27247;48.020;16.720;2022-11-09T05:35:09;100021.03;;;8.91;100.00
41515;BME280;27247;48.020;16.720;2022-11-09T05:39:19;100020.88;;;8.92;100.00
41515;BME280;27247;48.020;16.720;2022-11-09T05:43:30;100008.72;;;8.90;100.00
41515;BME280;27247;48.020;16.720;2022-11-09T05:47:41;100014.53;;;8.85;100.00
41515;BME280;27247;48.020;16.720;2022-11-09T05:51:52;100011.84;;;8.85;100.00
41515;BME280;27247;48.020;16.720;2022-11-09T05:56:08;100015.53;;;8.84;100.00
41515;BME280;27247;48.020;16.720;2022-11-09T06:00:19;100022.69;;;8.84;100.00
41515;BME280;27247;48.020;16.720;2022-11-09T06:04:29;100039.00;;;8.81;100.00
41515;BME280;27247;48.020;16.720;2022-11-09T06:08:40;100047.47;;;8.76;100.00
41515;BME280;27247;48.020;16.720;2022-11-09T06:12:50;100043.59;;;8.71;100.00
41515;BME280;27247;48.020;16.720;2022-11-09T06:17:00;100037.13;;;8.73;100.00
41515;BME280;27247;48.020;16.720;2022-11-09T06:21:11;100040.09;;;8.70;100.00
41515;BME280;27247;48.020;16.720;2022-11-09T06:25:22;100052.09;;;8.74;100.00
41515;BME280;27247;48.020;16.720;2022-11-09T06:29:32;100048.25;;;8.69;100.00
41515;BME280;27247;48.020;16.720;2022-11-09T06:33:42;100046.94;;;8.73;100.00
41515;BME280;27247;48.020;16.720;2022-11-09T06:37:57;100045.78;;;8.75;100.00
41515;BME280;27247;48.020;16.720;2022-11-09T06:42:08;100047.97;;;8.80;100.00
41515;BME280;27247;48.020;16.720;2022-11-09T06:46:18;100047.34;;;8.86;100.00
41515;BME280;27247;48.020;16.720;2022-11-09T06:50:31;100051.47;;;8.80;100.00
41515;BME280;27247;48.020;16.720;2022-11-09T06:54:42;100060.72;;;8.68;100.00
41515;BME280;27247;48.020;16.720;2022-11-09T06:58:53;100053.91;;;8.66;100.00
41515;BME280;27247;48.020;16.720;2022-11-09T07:03:03;100048.63;;;8.74;100.00
41515;BME280;27247;48.020;16.720;2022-11-09T07:07:13;100049.13;;;8.77;100.00
41515;BME280;27247;48.020;16.720;2022-11-09T07:11:24;100050.06;;;8.68;100.00
41515;BME280;27247;48.020;16.720;2022-11-09T07:15:35;100043.03;;;8.59;100.00
41515;BME280;27247;48.020;16.720;2022-11-09T07:19:46;100048.00;;;8.54;100.00
41515;BME280;27247;48.020;16.720;2022-11-09T07:23:56;100049.00;;;8.53;100.00
41515;BME280;27247;48.020;16.720;2022-11-09T07:28:08;100045.19;;;8.55;100.00
41515;BME280;27247;48.020;16.720;2022-11-09T07:32:19;100036.97;;;8.49;100.00
41515;BME280;27247;48.020;16.720;2022-11-09T07:36:30;100033.16;;;8.51;100.00
41515;BME280;27247;48.020;16.720;2022-11-09T07:40:41;100042.31;;;8.49;100.00
41515;BME280;27247;48.020;16.720;2022-11-09T07:44:51;100038.50;;;8.51;100.00
41515;BME280;27247;48.020;16.720;2022-11-09T07:49:02;100036.97;;;8.49;100.00
41515;BME280;27247;48.020;16.720;2022-11-09T07:53:13;100032.75;;;8.64;100.00
41515;BME280;27247;48.020;16.720;2022-11-09T07:57:24;100035.41;;;8.64;100.00
41515;BME280;27247;48.020;16.720;2022-11-09T08:01:34;100028.94;;;8.67;100.00
41515;BME280;27247;48.020;16.720;2022-11-09T08:05:46;100037.28;;;8.72;100.00
41515;BME280;27247;48.020;16.720;2022-11-09T08:09:57;100040.78;;;8.72;100.00
41515;BME280;27247;48.020;16.720;2022-11-09T08:14:07;100044.75;;;8.68;100.00
41515;BME280;27247;48.020;16.720;2022-11-09T08:18:19;100052.59;;;8.70;100.00
41515;BME280;27247;48.020;16.720;2022-11-09T08:22:30;100052.59;;;8.70;100.00
41515;BME280;27247;48.020;16.720;2022-11-09T08:26:40;100062.03;;;8.64;100.00
41515;BME280;27247;48.020;16.720;2022-11-09T08:31:01;100063.19;;;8.61;100.00
41515;BME280;27247;48.020;16.720;2022-11-09T08:35:15;100069.31;;;8.54;100.00
41515;BME280;27247;48.020;16.720;2022-11-09T08:39:26;100065.81;;;8.53;100.00
41515;BME280;27247;48.020;16.720;2022-11-09T08:43:37;100066.66;;;8.54;100.00
41515;BME280;27247;48.020;16.720;2022-11-09T08:47:47;100054.00;;;8.56;100.00
41515;BME280;27247;48.020;16.720;2022-11-09T08:51:58;100058.66;;;8.54;100.00
41515;BME280;27247;48.020;16.720;2022-11-09T08:56:08;100052.50;;;8.53;100.00
41515;BME280;27247;48.020;16.720;2022-11-09T09:00:20;100043.78;;;8.43;100.00
41515;BME280;27247;48.020;16.720;2022-11-09T09:04:30;100052.66;;;8.52;100.00
41515;BME280;27247;48.020;16.720;2022-11-09T09:08:40;100064.59;;;8.30;100.00
41515;BME280;27247;48.020;16.720;2022-11-09T09:12:51;100067.66;;;8.17;100.00
41515;BME280;27247;48.020;16.720;2022-11-09T09:17:01;100063.00;;;8.19;100.00
41515;BME280;27247;48.020;16.720;2022-11-09T09:21:12;100061.72;;;8.23;100.00
41515;BME280;27247;48.020;16.720;2022-11-09T09:25:22;100074.34;;;8.21;100.00
41515;BME280;27247;48.020;16.720;2022-11-09T09:29:33;100075.69;;;8.25;100.00
41515;BME280;27247;48.020;16.720;2022-11-09T09:33:44;100071.75;;;8.29;100.00
41515;BME280;27247;48.020;16.720;2022-11-09T09:37:55;100070.75;;;8.30;100.00
41515;BME280;27247;48.020;16.720;2022-11-09T09:42:13;100079.44;;;8.32;100.00
41515;BME280;27247;48.020;16.720;2022-11-09T09:46:43;100074.75;;;8.44;100.00
41515;BME280;27247;48.020;16.720;2022-11-09T09:51:01;100077.44;;;8.52;100.00
41515;BME280;27247;48.020;16.720;2022-11-09T09:55:36;100072.50;;;8.57;100.00
41515;BME280;27247;48.020;16.720;2022-11-09T09:59:50;100070.03;;;8.64;100.00
41515;BME280;27247;48.020;16.720;2022-11-09T10:04:01;100074.72;;;8.70;100.00
41515;BME280;27247;48.020;16.720;2022-11-09T10:08:27;100076.03;;;8.66;100.00
41515;BME280;27247;48.020;16.720;2022-11-09T10:13:01;100065.06;;;8.69;100.00
41515;BME280;27247;48.020;16.720;2022-11-09T10:30:24;100082.16;;;8.58;100.00
41515;BME280;27247;48.020;16.720;2022-11-09T10:34:41;100086.03;;;8.64;100.00
41515;BME280;27247;48.020;16.720;2022-11-09T10:38:55;100082.56;;;8.72;100.00
41515;BME280;27247;48.020;16.720;2022-11-09T10:43:12;100086.06;;;8.72;100.00
41515;BME280;27247;48.020;16.720;2022-11-09T10:47:23;100089.72;;;8.71;100.00
41515;BME280;27247;48.020;16.720;2022-11-09T10:51:40;100083.41;;;8.72;100.00
41515;BME280;27247;48.020;16.720;2022-11-09T10:56:05;100099.06;;;8.75;100.00
41515;BME280;27247;48.020;16.720;2022-11-09T11:00:20;100087.59;;;8.75;100.00
41515;BME280;27247;48.020;16.720;2022-11-09T11:04:31;100088.09;;;8.78;100.00
41515;BME280;27247;48.020;16.720;2022-11-09T11:08:43;100082.25;;;8.75;100.00
41515;BME280;27247;48.020;16.720;2022-11-09T11:21:31;100082.25;;;8.75;100.00
41515;BME280;27247;48.020;16.720;2022-11-09T11:25:58;100088.06;;;8.70;100.00
41515;BME280;27247;48.020;16.720;2022-11-09T11:30:31;100091.88;;;8.68;100.00
41515;BME280;27247;48.020;16.720;2022-11-09T11:34:46;100091.09;;;8.75;100.00
41515;BME280;27247;48.020;16.720;2022-11-09T11:44:26;100089.25;;;8.76;100.00
41515;BME280;27247;48.020;16.720;2022-11-09T11:48:47;100085.38;;;8.70;100.00
41515;BME280;27247;48.020;16.720;2022-11-09T11:53:16;100088.09;;;8.78;100.00
41515;BME280;27247;48.020;16.720;2022-11-09T12:02:23;100088.63;;;8.82;100.00
41515;BME280;27247;48.020;16.720;2022-11-09T12:11:01;100080.88;;;8.96;100.00
41515;BME280;27247;48.020;16.720;2022-11-09T12:20:18;100067.56;;;9.05;100.00
41515;BME280;27247;48.020;16.720;2022-11-09T12:24:44;100068.53;;;8.95;100.00
41515;BME280;27247;48.020;16.720;2022-11-09T12:29:16;100061.56;;;9.03;100.00
41515;BME280;27247;48.020;16.720;2022-11-09T12:34:01;100058.63;;;9.14;100.00
41515;BME280;27247;48.020;16.720;2022-11-09T12:38:15;100056.09;;;9.04;100.00
41515;BME280;27247;48.020;16.720;2022-11-09T12:42:44;100046.47;;;9.19;100.00
41515;BME280;27247;48.020;16.720;2022-11-09T12:47:02;100046.63;;;9.18;100.00
41515;BME280;27247;48.020;16.720;2022-11-09T12:51:14;100050.50;;;9.23;100.00
41515;BME280;27247;48.020;16.720;2022-11-09T12:56:00;100045.66;;;9.27;100.00
41515;BME280;27247;48.020;16.720;2022-11-09T13:04:56;100053.00;;;9.33;100.00
41515;BME280;27247;48.020;16.720;2022-11-09T13:13:24;100058.69;;;9.30;100.00
41515;BME280;27247;48.020;16.720;2022-11-09T13:21:47;100059.84;;;9.36;100.00
41515;BME280;27247;48.020;16.720;2022-11-09T13:25:58;100063.34;;;9.36;100.00
41515;BME280;27247;48.020;16.720;2022-11-09T13:34:49;100062.66;;;9.26;100.00
41515;BME280;27247;48.020;16.720;2022-11-09T13:43:35;100073.00;;;9.29;100.00
41515;BME280;27247;48.020;16.720;2022-11-09T13:47:49;100066.66;;;9.22;100.00
41515;BME280;27247;48.020;16.720;2022-11-09T13:52:01;100072.31;;;9.19;100.00
41515;BME280;27247;48.020;16.720;2022-11-09T14:00:45;100064.31;;;9.19;100.00
41515;BME280;27247;48.020;16.720;2022-11-09T14:04:56;100071.34;;;9.28;100.00
41515;BME280;27247;48.020;16.720;2022-11-09T14:09:14;100073.06;;;9.37;100.00
41515;BME280;27247;48.020;16.720;2022-11-09T14:14:02;100071.34;;;9.36;100.00
41515;BME280;27247;48.020;16.720;2022-11-09T14:18:57;100069.34;;;9.30;100.00
41515;BME280;27247;48.020;16.720;2022-11-09T14:23:18;100074.50;;;9.32;100.00
41515;BME280;27247;48.020;16.720;2022-11-09T14:27:29;100074.03;;;9.36;100.00
41515;BME280;27247;48.020;16.720;2022-11-09T14:31:41;100075.84;;;9.36;100.00
41515;BME280;27247;48.020;16.720;2022-11-09T14:35:56;100083.47;;;9.22;100.00
41515;BME280;27247;48.020;16.720;2022-11-09T14:40:15;100080.34;;;9.35;100.00
41515;BME280;27247;48.020;16.720;2022-11-09T14:44:29;100081.19;;;9.36;100.00
41515;BME280;27247;48.020;16.720;2022-11-09T14:48:51;100076.69;;;9.36;100.00
41515;BME280;27247;48.020;16.720;2022-11-09T14:53:03;100067.34;;;9.32;100.00
41515;BME280;27247;48.020;16.720;2022-11-09T14:57:15;100080.53;;;9.34;100.00
41515;BME280;27247;48.020;16.720;2022-11-09T15:01:26;100085.19;;;9.32;100.00
41515;BME280;27247;48.020;16.720;2022-11-09T15:05:39;100064.34;;;9.35;100.00
41515;BME280;27247;48.020;16.720;2022-11-09T15:09:54;100076.84;;;9.35;100.00
41515;BME280;27247;48.020;16.720;2022-11-09T15:18:30;100080.84;;;9.31;100.00
41515;BME280;27247;48.020;16.720;2022-11-09T15:22:56;100083.66;;;9.29;100.00
41515;BME280;27247;48.020;16.720;2022-11-09T15:27:27;100083.66;;;9.29;100.00
41515;BME280;27247;48.020;16.720;2022-11-09T15:31:38;100087.69;;;9.33;100.00
41515;BME280;27247;48.020;16.720;2022-11-09T15:35:57;100080.00;;;9.30;100.00
41515;BME280;27247;48.020;16.720;2022-11-09T15:40:15;100091.47;;;9.22;100.00
41515;BME280;27247;48.020;16.720;2022-11-09T15:44:26;100093.19;;;9.32;100.00
41515;BME280;27247;48.020;16.720;2022-11-09T15:48:36;100090.97;;;9.19;100.00
41515;BME280;27247;48.020;16.720;2022-11-09T15:52:46;100091.28;;;9.16;100.00
41515;BME280;27247;48.020;16.720;2022-11-09T15:56:57;100090.84;;;8.94;100.00
41515;BME280;27247;48.020;16.720;2022-11-09T16:01:08;100100.13;;;8.82;100.00
41515;BME280;27247;48.020;16.720;2022-11-09T16:05:19;100092.53;;;8.70;100.00
41515;BME280;27247;48.020;16.720;2022-11-09T16:09:31;100098.88;;;8.69;100.00
41515;BME280;27247;48.020;16.720;2022-11-09T16:13:42;100100.19;;;8.64;100.00
41515;BME280;27247;48.020;16.720;2022-11-09T16:17:52;100101.84;;;8.66;100.00
41515;BME280;27247;48.020;16.720;2022-11-09T16:22:03;100103.56;;;8.75;100.00
41515;BME280;27247;48.020;16.720;2022-11-09T16:26:16;100104.28;;;8.85;100.00
41515;BME280;27247;48.020;16.720;2022-11-09T16:30:27;100115.09;;;8.83;100.00
41515;BME280;27247;48.020;16.720;2022-11-09T16:34:37;100116.81;;;8.92;100.00
41515;BME280;27247;48.020;16.720;2022-11-09T16:38:50;100129.53;;;8.99;100.00
41515;BME280;27247;48.020;16.720;2022-11-09T16:43:02;100121.88;;;9.04;100.00
41515;BME280;27247;48.020;16.720;2022-11-09T16:47:14;100119.22;;;9.04;100.00
41515;BME280;27247;48.020;16.720;2022-11-09T16:51:26;100113.38;;;9.00;100.00
41515;BME280;27247;48.020;16.720;2022-11-09T16:55:36;100115.41;;;9.06;100.00
41515;BME280;27247;48.020;16.720;2022-11-09T16:59:48;100119.06;;;9.05;100.00
41515;BME280;27247;48.020;16.720;2022-11-09T17:03:59;100122.69;;;8.96;100.00
41515;BME280;27247;48.020;16.720;2022-11-09T17:08:10;100113.16;;;8.93;100.00
41515;BME280;27247;48.020;16.720;2022-11-09T17:12:20;100113.28;;;8.84;100.00
41515;BME280;27247;48.020;16.720;2022-11-09T17:16:33;100121.38;;;8.74;100.00
41515;BME280;27247;48.020;16.720;2022-11-09T17:20:46;100129.38;;;8.74;100.00
41515;BME280;27247;48.020;16.720;2022-11-09T17:24:58;100128.13;;;8.60;100.00
41515;BME280;27247;48.020;16.720;2022-11-09T17:29:08;100133.75;;;8.57;100.00
41515;BME280;27247;48.020;16.720;2022-11-09T17:33:19;100135.44;;;8.58;100.00
41515;BME280;27247;48.020;16.720;2022-11-09T17:37:31;100141.28;;;8.62;100.00
41515;BME280;27247;48.020;16.720;2022-11-09T17:41:42;100146.41;;;8.55;100.00
41515;BME280;27247;48.020;16.720;2022-11-09T17:45:53;100154.16;;;8.49;100.00
41515;BME280;27247;48.020;16.720;2022-11-09T17:50:04;100159.56;;;8.57;100.00
41515;BME280;27247;48.020;16.720;2022-11-09T17:54:15;100155.91;;;8.58;100.00
41515;BME280;27247;48.020;16.720;2022-11-09T17:58:25;100148.22;;;8.55;100.00
41515;BME280;27247;48.020;16.720;2022-11-09T18:02:36;100149.31;;;8.44;100.00
41515;BME280;27247;48.020;16.720;2022-11-09T18:06:47;100147.28;;;8.11;100.00
41515;BME280;27247;48.020;16.720;2022-11-09T18:10:58;100150.00;;;8.01;100.00
41515;BME280;27247;48.020;16.720;2022-11-09T18:15:09;100140.44;;;7.90;100.00
41515;BME280;27247;48.020;16.720;2022-11-09T18:19:20;100139.91;;;7.87;100.00
41515;BME280;27247;48.020;16.720;2022-11-09T18:23:32;100144.44;;;7.77;100.00
41515;BME280;27247;48.020;16.720;2022-11-09T18:27:43;100146.03;;;7.69;100.00
41515;BME280;27247;48.020;16.720;2022-11-09T18:31:55;100147.47;;;7.64;100.00
41515;BME280;27247;48.020;16.720;2022-11-09T18:36:09;100137.44;;;7.58;100.00
41515;BME280;27247;48.020;16.720;2022-11-09T18:40:20;100138.03;;;7.52;100.00
41515;BME280;27247;48.020;16.720;2022-11-09T18:44:31;100137.28;;;7.59;100.00
41515;BME280;27247;48.020;16.720;2022-11-09T18:48:42;100140.31;;;7.64;100.00
41515;BME280;27247;48.020;16.720;2022-11-09T18:52:53;100138.41;;;7.57;100.00
41515;BME280;27247;48.020;16.720;2022-11-09T18:57:04;100139.53;;;7.54;100.00
41515;BME280;27247;48.020;16.720;2022-11-09T19:01:16;100139.66;;;7.35;100.00
41515;BME280;27247;48.020;16.720;2022-11-09T19:05:27;100141.38;;;7.17;100.00
41515;BME280;27247;48.020;16.720;2022-11-09T19:09:37;100147.41;;;6.72;100.00
41515;BME280;27247;48.020;16.720;2022-11-09T19:13:48;100149.66;;;6.57;100.00
41515;BME280;27247;48.020;16.720;2022-11-09T19:18:00;100144.63;;;6.54;100.00
41515;BME280;27247;48.020;16.720;2022-11-09T19:22:25;100150.09;;;6.53;100.00
41515;BME280;27247;48.020;16.720;2022-11-09T19:26:37;100137.38;;;6.47;100.00
41515;BME280;27247;48.020;16.720;2022-11-09T19:30:50;100142.28;;;6.51;100.00
41515;BME280;27247;48.020;16.720;2022-11-09T19:35:00;100145.91;;;6.50;100.00
41515;BME280;27247;48.020;16.720;2022-11-09T19:39:15;100137.25;;;6.38;100.00
41515;BME280;27247;48.020;16.720;2022-11-09T19:43:27;100151.34;;;6.20;100.00
41515;BME280;27247;48.020;16.720;2022-11-09T19:47:38;100158.88;;;6.15;100.00
41515;BME280;27247;48.020;16.720;2022-11-09T19:51:49;100184.59;;;6.24;100.00
41515;BME280;27247;48.020;16.720;2022-11-09T19:56:01;100183.78;;;6.33;100.00
41515;BME280;27247;48.020;16.720;2022-11-09T20:00:14;100187.81;;;6.27;100.00
41515;BME280;27247;48.020;16.720;2022-11-09T20:04:25;100188.53;;;6.29;100.00
41515;BME280;27247;48.020;16.720;2022-11-09T20:08:37;100189.50;;;6.28;100.00
41515;BME280;27247;48.020;16.720;2022-11-09T20:12:48;100181.50;;;6.19;100.00
41515;BME280;27247;48.020;16.720;2022-11-09T20:16:59;100185.69;;;6.12;100.00
41515;BME280;27247;48.020;16.720;2022-11-09T20:21:10;100192.13;;;6.19;100.00
41515;BME280;27247;48.020;16.720;2022-11-09T20:25:22;100189.47;;;6.19;100.00
41515;BME280;27247;48.020;16.720;2022-11-09T20:29:33;100193.00;;;6.29;100.00
41515;BME280;27247;48.020;16.720;2022-11-09T20:33:43;100181.25;;;6.31;100.00
41515;BME280;27247;48.020;16.720;2022-11-09T20:37:54;100178.16;;;6.17;100.00
41515;BME280;27247;48.020;16.720;2022-11-09T20:42:05;100187.38;;;6.22;100.00
41515;BME280;27247;48.020;16.720;2022-11-09T20:46:20;100190.59;;;6.16;100.00
41515;BME280;27247;48.020;16.720;2022-11-09T20:50:32;100189.06;;;6.23;100.00
41515;BME280;27247;48.020;16.720;2022-11-09T20:54:44;100188.38;;;6.31;100.00
41515;BME280;27247;48.020;16.720;2022-11-09T20:58:54;100191.31;;;6.28;100.00
41515;BME280;27247;48.020;16.720;2022-11-09T21:03:05;100206.09;;;6.21;100.00
41515;BME280;27247;48.020;16.720;2022-11-09T21:07:16;100202.03;;;6.17;100.00
41515;BME280;27247;48.020;16.720;2022-11-09T21:11:26;100201.38;;;6.34;100.00
41515;BME280;27247;48.020;16.720;2022-11-09T21:16:08;100210.88;;;6.46;100.00
41515;BME280;27247;48.020;16.720;2022-11-09T21:20:19;100195.63;;;6.58;100.00
41515;BME280;27247;48.020;16.720;2022-11-09T21:24:29;100190.03;;;6.70;100.00
41515;BME280;27247;48.020;16.720;2022-11-09T21:28:58;100186.09;;;6.84;100.00
41515;BME280;27247;48.020;16.720;2022-11-09T21:33:32;100191.81;;;6.89;100.00
41515;BME280;27247;48.020;16.720;2022-11-09T21:37:42;100187.34;;;6.90;100.00
41515;BME280;27247;48.020;16.720;2022-11-09T21:41:53;100182.03;;;6.90;100.00
41515;BME280;27247;48.020;16.720;2022-11-09T21:46:03;100184.41;;;6.93;100.00
41515;BME280;27247;48.020;16.720;2022-11-09T21:50:13;100186.75;;;7.05;100.00
41515;BME280;27247;48.020;16.720;2022-11-09T21:54:24;100195.69;;;7.04;100.00
41515;BME280;27247;48.020;16.720;2022-11-09T21:58:35;100194.28;;;7.10;100.00
41515;BME280;27247;48.020;16.720;2022-11-09T22:02:45;100195.94;;;7.11;100.00
41515;BME280;27247;48.020;16.720;2022-11-09T22:06:55;100199.31;;;7.13;100.00
41515;BME280;27247;48.020;16.720;2022-11-09T22:15:17;100194.78;;;7.23;100.00
41515;BME280;27247;48.020;16.720;2022-11-09T22:19:46;100200.84;;;7.16;100.00
41515;BME280;27247;48.020;16.720;2022-11-09T22:24:16;100200.84;;;7.16;100.00
41515;BME280;27247;48.020;16.720;2022-11-09T22:28:26;100205.97;;;7.27;100.00
41515;BME280;27247;48.020;16.720;2022-11-09T22:32:36;100204.97;;;7.28;100.00
41515;BME280;27247;48.020;16.720;2022-11-09T22:36:47;100217.63;;;7.16;100.00
41515;BME280;27247;48.020;16.720;2022-11-09T22:41:05;100220.56;;;7.13;100.00
41515;BME280;27247;48.020;16.720;2022-11-09T22:45:15;100225.03;;;7.13;100.00
41515;BME280;27247;48.020;16.720;2022-11-09T22:49:26;100223.50;;;7.10;100.00
41515;BME280;27247;48.020;16.720;2022-11-09T22:53:36;100218.34;;;7.09;100.00
41515;BME280;27247;48.020;16.720;2022-11-09T22:57:46;100224.22;;;7.02;100.00
41515;BME280;27247;48.020;16.720;2022-11-09T23:01:57;100221.28;;;7.05;100.00
41515;BME280;27247;48.020;16.720;2022-11-09T23:06:10;100223.25;;;7.03;100.00
41515;BME280;27247;48.020;16.720;2022-11-09T23:10:20;100226.19;;;7.00;100.00